createdAt,value
2019-05-30T00:03:24.697Z,2.30
2019-05-30T00:08:21.546Z,2.17
2019-05-30T00:13:16.268Z,2.10
2019-05-30T00:18:14.252Z,2.30
2019-05-30T00:23:09.308Z,2.30
2019-05-30T00:28:05.192Z,2.40
2019-05-30T00:33:00.714Z,2.57
2019-05-30T00:37:55.671Z,2.87
2019-05-30T00:42:50.418Z,2.23
2019-05-30T00:47:45.163Z,2.03
2019-05-30T00:52:39.921Z,2.30
2019-05-30T00:57:34.771Z,2.23
2019-05-30T01:02:29.511Z,3.00
2019-05-30T01:07:24.244Z,2.60
2019-05-30T01:12:18.980Z,4.63
2019-05-30T01:17:13.830Z,2.30
2019-05-30T01:22:10.604Z,2.20
2019-05-30T01:27:05.636Z,2.30
2019-05-30T01:32:03.656Z,2.30
2019-05-30T01:36:59.816Z,2.50
2019-05-30T01:41:54.839Z,2.40
2019-05-30T01:46:52.623Z,2.30
2019-05-30T01:51:47.397Z,2.77
2019-05-30T01:56:43.256Z,2.57
2019-05-30T02:01:39.019Z,2.27
2019-05-30T02:06:33.749Z,2.23
2019-05-30T02:11:28.795Z,2.40
2019-05-30T02:16:23.534Z,2.80
2019-05-30T02:21:18.272Z,2.40
2019-05-30T02:26:13.192Z,2.63
2019-05-30T02:31:09.589Z,2.67
2019-05-30T02:36:06.333Z,2.80
2019-05-30T02:41:01.381Z,2.40
2019-05-30T02:45:57.656Z,2.70
2019-05-30T02:50:52.386Z,2.70
2019-05-30T02:55:47.126Z,2.60
2019-05-30T03:00:41.941Z,3.13
2019-05-30T03:05:36.786Z,2.77
2019-05-30T03:10:31.611Z,2.77
2019-05-30T03:15:26.659Z,3.00
2019-05-30T03:20:23.457Z,2.70
2019-05-30T03:25:18.233Z,2.80
2019-05-30T03:30:25.511Z,3.30
2019-05-30T03:35:24.020Z,2.60
2019-05-30T03:40:14.460Z,2.90
2019-05-30T03:45:11.859Z,2.80
2019-05-30T03:50:08.642Z,3.17
2019-05-30T03:55:04.848Z,3.03
2019-05-30T04:00:09.422Z,3.37
2019-05-30T04:05:06.710Z,3.30
2019-05-30T04:10:03.429Z,3.50
2019-05-30T04:15:04.191Z,3.37
2019-05-30T04:19:58.932Z,3.90
2019-05-30T04:24:53.709Z,4.67
2019-05-30T04:29:48.512Z,4.63
2019-05-30T04:34:43.247Z,4.60
2019-05-30T04:39:37.978Z,5.17
2019-05-30T04:44:32.737Z,4.77
2019-05-30T04:49:27.521Z,4.77
2019-05-30T04:54:23.288Z,4.77
2019-05-30T04:59:23.929Z,4.57
2019-05-30T05:04:19.677Z,4.43
2019-05-30T05:09:16.069Z,4.30
2019-05-30T05:14:12.231Z,4.23
2019-05-30T05:19:07.042Z,4.20
2019-05-30T05:24:01.795Z,3.77
2019-05-30T05:28:56.811Z,4.27
2019-05-30T05:33:56.820Z,3.87
2019-05-30T05:38:48.038Z,3.70
2019-05-30T05:43:42.792Z,4.00
2019-05-30T05:48:37.625Z,3.77
2019-05-30T05:53:32.401Z,3.90
2019-05-30T05:58:32.927Z,4.00
2019-05-30T06:03:28.316Z,4.20
2019-05-30T06:08:23.723Z,3.67
2019-05-30T06:13:18.718Z,4.00
2019-05-30T06:18:13.445Z,4.07
2019-05-30T06:23:08.567Z,4.20
2019-05-30T06:28:03.317Z,4.10
2019-05-30T06:32:59.224Z,4.73
2019-05-30T06:37:54.959Z,4.33
2019-05-30T06:42:49.723Z,4.63
2019-05-30T06:47:44.968Z,4.20
2019-05-30T06:52:39.693Z,3.93
2019-05-30T06:57:34.510Z,4.13
2019-05-30T07:02:30.456Z,3.80
2019-05-30T07:07:26.873Z,3.60
2019-05-30T07:12:22.894Z,3.53
2019-05-30T07:17:18.661Z,3.70
2019-05-30T07:22:13.410Z,3.47
2019-05-30T07:27:11.274Z,3.30
2019-05-30T07:32:06.035Z,2.83
2019-05-30T07:37:03.983Z,2.63
2019-05-30T07:42:06.257Z,2.60
2019-05-30T07:46:55.261Z,2.37
2019-05-30T07:51:50.004Z,2.23
2019-05-30T07:56:47.845Z,2.17
2019-05-30T08:01:44.633Z,2.10
2019-05-30T08:06:39.370Z,1.90
2019-05-30T08:11:35.073Z,1.87
2019-05-30T08:16:31.172Z,1.50
2019-05-30T08:21:27.814Z,1.90
2019-05-30T08:26:28.362Z,1.60
2019-05-30T08:31:23.107Z,1.70
2019-05-30T08:36:19.422Z,1.60
2019-05-30T08:41:14.179Z,1.33
2019-05-30T08:46:09.030Z,1.60
2019-05-30T08:51:03.839Z,1.40
2019-05-30T08:55:58.583Z,1.50
2019-05-30T09:00:53.333Z,1.50
2019-05-30T09:06:02.506Z,1.80
2019-05-30T09:10:47.711Z,1.75
2019-05-30T09:15:43.009Z,1.80
2019-05-30T09:20:39.464Z,2.15
2019-05-30T09:25:34.611Z,2.00
2019-05-30T09:30:30.396Z,2.37
2019-05-30T09:35:28.233Z,2.45
2019-05-30T09:40:25.208Z,1.75
2019-05-30T09:45:22.833Z,2.05
2019-05-30T09:50:21.018Z,2.20
2019-05-30T09:55:17.425Z,1.75
2019-05-30T10:00:12.937Z,1.85
2019-05-30T10:05:08.155Z,2.00
2019-05-30T10:10:09.234Z,1.95
2019-05-30T10:15:04.344Z,2.10
2019-05-30T10:19:59.093Z,1.60
2019-05-30T10:24:54.904Z,2.00
2019-05-30T10:29:49.645Z,1.82
2019-05-30T10:34:46.162Z,1.80
2019-05-30T10:39:41.457Z,1.70
2019-05-30T10:44:36.528Z,1.90
2019-05-30T10:49:34.573Z,1.80
2019-05-30T10:54:27.746Z,2.10
2019-05-30T10:59:22.501Z,1.60
2019-05-30T11:04:20.549Z,1.77
2019-05-30T11:09:17.121Z,2.12
2019-05-30T11:14:11.881Z,1.80
2019-05-30T11:19:07.671Z,1.90
2019-05-30T11:24:02.794Z,1.90
2019-05-30T11:28:58.821Z,1.75
2019-05-30T11:34:00.819Z,2.00
2019-05-30T11:38:55.645Z,1.90
2019-05-30T11:43:51.497Z,1.90
2019-05-30T11:48:46.278Z,1.95
2019-05-30T11:53:41.106Z,1.90
2019-05-30T11:58:36.914Z,2.05
2019-05-30T12:03:31.957Z,1.90
2019-05-30T12:08:27.673Z,2.00
2019-05-30T12:13:22.426Z,2.00
2019-05-30T12:18:17.292Z,2.10
2019-05-30T12:23:12.123Z,1.93
2019-05-30T12:28:25.467Z,2.40
2019-05-30T12:33:27.411Z,2.10
2019-05-30T12:38:22.237Z,2.33
2019-05-30T12:43:17.025Z,2.30
2019-05-30T12:48:13.750Z,2.00
2019-05-30T12:53:08.486Z,2.33
2019-05-30T12:58:07.179Z,2.00
2019-05-30T13:03:03.172Z,1.97
2019-05-30T13:08:14.438Z,1.80
2019-05-30T13:12:55.666Z,1.83
2019-05-30T13:17:50.367Z,1.80
2019-05-30T13:22:45.195Z,1.90
2019-05-30T13:27:40.021Z,1.60
2019-05-30T13:32:35.475Z,1.40
2019-05-30T13:37:30.865Z,1.45
2019-05-30T13:42:26.652Z,1.50
2019-05-30T13:47:24.486Z,1.70
2019-05-30T13:52:19.314Z,1.50
2019-05-30T13:57:14.088Z,1.87
2019-05-30T14:02:10.306Z,1.90
2019-05-30T14:07:06.384Z,1.80
2019-05-30T14:12:02.363Z,1.30
2019-05-30T14:16:57.112Z,1.40
2019-05-30T14:21:51.861Z,1.30
2019-05-30T14:26:47.605Z,1.90
2019-05-30T14:31:42.603Z,1.70
2019-05-30T14:36:43.136Z,2.00
2019-05-30T14:41:37.905Z,2.30
2019-05-30T14:46:32.711Z,2.73
2019-05-30T14:51:29.465Z,2.00
2019-05-30T14:56:29.991Z,2.30
2019-05-30T15:01:24.745Z,1.93
2019-05-30T15:06:19.484Z,2.03
2019-05-30T15:11:15.701Z,1.60
2019-05-30T15:16:10.863Z,1.80
2019-05-30T15:21:06.296Z,1.50
2019-05-30T15:26:01.188Z,1.77
2019-05-30T15:30:55.983Z,1.90
2019-05-30T15:35:50.751Z,2.00
2019-05-30T15:40:45.574Z,2.07
2019-05-30T15:45:40.702Z,2.03
2019-05-30T15:50:35.520Z,1.83
2019-05-30T15:55:30.261Z,1.40
2019-05-30T16:00:26.461Z,1.97
2019-05-30T16:05:21.377Z,1.60
2019-05-30T16:10:19.417Z,1.47
2019-05-30T16:15:15.545Z,1.40
2019-05-30T16:20:12.094Z,1.03
2019-05-30T16:25:08.395Z,1.57
2019-05-30T16:30:03.589Z,1.40
2019-05-30T16:35:01.460Z,1.50
2019-05-30T16:40:05.698Z,1.20
2019-05-30T16:44:52.631Z,1.60
2019-05-30T16:49:47.383Z,1.40
2019-05-30T16:54:45.156Z,1.60
2019-05-30T16:59:39.896Z,1.07
2019-05-30T17:04:34.649Z,1.30
2019-05-30T17:09:32.472Z,1.60
2019-05-30T17:14:27.575Z,1.40
2019-05-30T17:19:22.409Z,1.10
2019-05-30T17:24:17.130Z,1.20
2019-05-30T17:29:11.879Z,1.30
2019-05-30T17:34:06.623Z,1.30
2019-05-30T17:39:01.374Z,1.30
2019-05-30T17:43:56.145Z,1.47
2019-05-30T17:48:52.898Z,1.27
2019-05-30T17:53:49.652Z,1.40
2019-05-30T17:58:44.396Z,1.10
2019-05-30T18:03:41.149Z,1.10
2019-05-30T18:08:35.889Z,1.30
2019-05-30T18:13:31.287Z,1.40
2019-05-30T18:18:27.216Z,1.50
2019-05-30T18:23:23.511Z,1.30
2019-05-30T18:28:21.581Z,1.57
2019-05-30T18:33:22.224Z,1.20
2019-05-30T18:38:17.263Z,1.50
2019-05-30T18:43:12.036Z,1.60
2019-05-30T18:48:07.391Z,1.70
2019-05-30T18:53:02.225Z,1.70
2019-05-30T18:57:56.959Z,1.73
2019-05-30T19:02:52.461Z,1.67
2019-05-30T19:07:47.219Z,1.70
2019-05-30T19:12:41.963Z,1.80
2019-05-30T19:17:36.791Z,1.80
2019-05-30T19:22:37.472Z,1.87
2019-05-30T19:27:38.608Z,2.10
2019-05-30T19:32:42.444Z,1.57
2019-05-30T19:37:38.255Z,1.93
2019-05-30T19:42:33.519Z,1.57
2019-05-30T19:47:28.631Z,1.87
2019-05-30T19:52:23.523Z,1.87
2019-05-30T19:57:18.275Z,1.60
2019-05-30T20:02:13.032Z,1.70
2019-05-30T20:07:07.866Z,2.60
2019-05-30T20:12:06.300Z,5.67
2019-05-30T20:16:59.180Z,7.47
2019-05-30T20:21:53.919Z,10.37
2019-05-30T20:26:54.640Z,9.50
2019-05-30T20:31:50.451Z,5.10
2019-05-30T20:36:45.188Z,3.80
2019-05-30T20:41:40.970Z,2.90
2019-05-30T20:46:37.050Z,2.67
2019-05-30T20:51:34.924Z,2.60
2019-05-30T20:56:28.485Z,2.67
2019-05-30T21:01:23.222Z,2.70
2019-05-30T21:06:19.231Z,2.30
2019-05-30T21:11:14.079Z,2.20
2019-05-30T21:16:16.275Z,2.00
2019-05-30T21:21:11.053Z,2.30
2019-05-30T21:26:05.793Z,2.00
2019-05-30T21:31:06.331Z,2.17
2019-05-30T21:36:01.115Z,2.30
2019-05-30T21:41:04.999Z,2.10
2019-05-30T21:46:00.028Z,2.07
2019-05-30T21:50:57.635Z,2.10
2019-05-30T21:55:52.386Z,2.00
2019-05-30T22:01:25.745Z,1.97
2019-05-30T22:06:21.576Z,2.10
2019-05-30T22:11:16.318Z,1.90
2019-05-30T22:16:16.987Z,2.10
2019-05-30T22:21:11.732Z,2.20
2019-05-30T22:26:06.486Z,2.10
2019-05-30T22:31:01.226Z,1.93
2019-05-30T22:35:55.971Z,2.10
2019-05-30T22:40:51.987Z,1.93
2019-05-30T22:45:48.101Z,2.27
2019-05-30T22:50:42.950Z,2.10
2019-05-30T22:55:37.981Z,2.20
2019-05-30T23:00:34.787Z,2.13
2019-05-30T23:05:31.044Z,2.40
2019-05-30T23:10:31.561Z,2.17
2019-05-30T23:15:26.303Z,2.10
2019-05-30T23:20:21.060Z,2.30
2019-05-30T23:25:16.963Z,2.40
2019-05-30T23:30:12.019Z,2.27
2019-05-30T23:35:07.028Z,2.30
2019-05-30T23:40:01.841Z,2.27
2019-05-30T23:44:57.544Z,2.60
2019-05-30T23:49:58.729Z,2.30
2019-05-30T23:54:54.192Z,2.47
2019-05-30T23:59:48.981Z,2.40
